Time;durP1;ratioP1;P1;durP2;ratioP2;P2;SDS_P1;SDS_P2;PMS_P1;PMS_P2;Temp;Humidity;BMP_temperature;BMP_pressure;BME280_temperature;BME280_humidity;BME280_pressure;Samples;Min_cycle;Max_cycle;Signal;HPM_P1;HPM_P2
2021/11/30 00:01:06;;;;;;;;;;;5.50;99.90;;;;;;5012107;28;19917;-69
2021/11/30 00:03:32;;;;;;;;;;;5.50;99.90;;;;;;5010636;28;19917;-67
2021/11/30 00:05:57;;;;;;;;;;;5.50;99.90;;;;;;5013279;28;20000;-69
2021/11/30 00:08:27;;;;;;;;;;;5.40;99.90;;;;;;5025291;28;19920;-69
2021/11/30 00:10:54;;;;;;;;;;;5.30;99.90;;;;;;5014380;28;19913;-71
2021/11/30 00:13:20;;;;;;;;;;;5.20;99.90;;;;;;5019927;28;19913;-71
2021/11/30 00:15:46;;;;;;;;;;;5.10;99.90;;;;;;5011094;28;19917;-68
2021/11/30 00:18:12;;;;;;;;;;;5.10;99.90;;;;;;5002883;28;19971;-69
2021/11/30 00:20:38;;;;;;;;;;;5.10;99.90;;;;;;5009283;28;20413;-69
2021/11/30 00:23:05;;;;;;;;;;;5.10;99.90;;;;;;5008326;28;20001;-69
2021/11/30 00:25:30;;;;;;;;;;;5.00;99.90;;;;;;5023198;28;19913;-68
2021/11/30 00:27:56;;;;;;;;;;;5.00;99.90;;;;;;5009563;28;20361;-69
2021/11/30 00:30:22;;;;;;;;;;;5.00;99.90;;;;;;5022813;28;19975;-69
2021/11/30 00:32:48;;;;;;;;;;;5.00;99.90;;;;;;5010178;28;19953;-68
2021/11/30 00:35:14;;;;;;;;;;;4.90;99.90;;;;;;5009521;28;19918;-68
2021/11/30 00:37:39;;;;;;;;;;;4.90;99.90;;;;;;5009207;28;19925;-67
2021/11/30 00:40:05;;;;;;;;;;;4.90;99.90;;;;;;5013657;28;20383;-67
2021/11/30 00:42:31;;;;;;;;;;;4.80;99.90;;;;;;5028403;28;20444;-67
2021/11/30 00:45:00;;;;;;;;;;;4.80;99.90;;;;;;5017224;28;19913;-69
2021/11/30 00:47:29;;;;;;;;;;;4.80;99.90;;;;;;5023833;28;19948;-69
2021/11/30 00:49:54;;;;;;;;;;;4.80;99.90;;;;;;5008669;28;20445;-68
2021/11/30 00:52:20;;;;;;;;;;;4.70;99.90;;;;;;5010851;28;19969;-68
2021/11/30 00:54:46;;;;;;;;;;;4.70;99.90;;;;;;5014594;28;19960;-66
2021/11/30 00:57:13;;;;;;;;;;;4.70;99.90;;;;;;5008701;28;19992;-66
2021/11/30 00:59:39;;;;;;;;;;;4.70;99.90;;;;;;5014996;28;19917;-68
2021/11/30 01:02:04;;;;;;;;;;;4.70;99.90;;;;;;5009065;28;19922;-67
2021/11/30 01:04:30;;;;;;;;;;;4.70;99.90;;;;;;5008472;28;19925;-66
2021/11/30 01:06:55;;;;;;;;;;;4.70;99.90;;;;;;5008462;28;19943;-67
2021/11/30 01:09:21;;;;;;;;;;;4.70;99.90;;;;;;5008570;28;19921;-68
2021/11/30 01:11:47;;;;;;;;;;;4.70;99.90;;;;;;5011086;28;19910;-68
2021/11/30 01:14:13;;;;;;;;;;;4.70;99.90;;;;;;5021727;28;20004;-67
2021/11/30 01:16:38;;;;;;;;;;;4.70;99.90;;;;;;5017917;28;19920;-69
2021/11/30 01:19:05;;;;;;;;;;;4.70;99.90;;;;;;5027079;28;19960;-68
2021/11/30 01:21:31;;;;;;;;;;;4.70;99.90;;;;;;5009517;28;19937;-68
2021/11/30 01:23:56;;;;;;;;;;;4.70;99.90;;;;;;5008943;28;19940;-68
2021/11/30 01:26:22;;;;;;;;;;;4.70;99.90;;;;;;5009725;28;20382;-68
2021/11/30 01:28:47;;;;;;;;;;;4.70;99.90;;;;;;5009336;28;19935;-68
2021/11/30 01:31:13;;;;;;;;;;;4.70;99.90;;;;;;5009491;28;19913;-67
2021/11/30 01:33:38;;;;;;;;;;;4.80;99.90;;;;;;5008657;28;19918;-69
2021/11/30 01:36:04;;;;;;;;;;;4.70;99.90;;;;;;5008906;28;19928;-67
2021/11/30 01:38:31;;;;;;;;;;;4.70;99.90;;;;;;5013579;28;19914;-70
2021/11/30 01:40:59;;;;;;;;;;;4.80;99.90;;;;;;5021915;28;19917;-68
2021/11/30 01:43:27;;;;;;;;;;;4.80;99.90;;;;;;5015735;28;19909;-66
2021/11/30 01:46:26;;;;;;;;;;;4.80;99.90;;;;;;5028621;28;19960;-68
2021/11/30 01:51:25;;;;;;;;;;;4.80;99.90;;;;;;5006340;28;19944;-66
2021/11/30 01:53:51;;;;;;;;;;;4.90;99.90;;;;;;5008105;28;19948;-69
2021/11/30 01:56:17;;;;;;;;;;;4.90;99.90;;;;;;4988277;28;20404;-70
2021/11/30 01:58:43;;;;;;;;;;;4.90;99.90;;;;;;4999584;28;19925;-70
2021/11/30 02:01:08;;;;;;;;;;;5.00;99.90;;;;;;5006716;28;19921;-68
2021/11/30 02:03:34;;;;;;;;;;;5.00;99.90;;;;;;5007873;28;19929;-70
2021/11/30 02:06:00;;;;;;;;;;;5.00;99.90;;;;;;5010657;28;19940;-69
2021/11/30 02:08:25;;;;;;;;;;;5.00;99.90;;;;;;5025344;28;20287;-69
2021/11/30 02:10:54;;;;;;;;;;;5.10;99.90;;;;;;5010968;28;19960;-70
2021/11/30 02:13:19;;;;;;;;;;;5.10;99.90;;;;;;5020029;28;19914;-69
2021/11/30 02:15:49;;;;;;;;;;;5.10;99.90;;;;;;5011601;28;20052;-70
2021/11/30 02:18:21;;;;;;;;;;;5.10;99.90;;;;;;5010866;28;19963;-68
2021/11/30 02:20:47;;;;;;;;;;;5.20;99.90;;;;;;5010417;28;19914;-69
2021/11/30 02:25:58;;;;;;;;;;;5.20;99.90;;;;;;5013946;28;19919;-67
2021/11/30 02:28:24;;;;;;;;;;;5.20;99.90;;;;;;5011301;28;20198;-67
2021/11/30 02:30:50;;;;;;;;;;;5.30;99.90;;;;;;5011029;28;20389;-66
2021/11/30 02:33:15;;;;;;;;;;;5.30;99.90;;;;;;5011126;28;19952;-64
2021/11/30 02:35:40;;;;;;;;;;;5.30;99.90;;;;;;5010319;28;19972;-65
2021/11/30 02:38:08;;;;;;;;;;;5.30;99.90;;;;;;5009077;28;19921;-65
2021/11/30 02:40:35;;;;;;;;;;;5.30;99.90;;;;;;5008865;28;20382;-64
2021/11/30 02:43:01;;;;;;;;;;;5.30;99.90;;;;;;5009099;28;20012;-63
2021/11/30 02:45:27;;;;;;;;;;;5.40;99.90;;;;;;5010455;28;19968;-61
2021/11/30 02:47:52;;;;;;;;;;;5.40;99.90;;;;;;5009180;28;20396;-62
2021/11/30 02:50:18;;;;;;;;;;;5.40;99.90;;;;;;5010433;28;19975;-61
2021/11/30 02:52:43;;;;;;;;;;;5.40;99.90;;;;;;5011433;28;19913;-68
2021/11/30 02:55:09;;;;;;;;;;;5.50;99.90;;;;;;5011406;28;20076;-59
2021/11/30 02:57:34;;;;;;;;;;;5.50;99.90;;;;;;5026925;28;19963;-61
2021/11/30 03:00:00;;;;;;;;;;;5.50;99.90;;;;;;5011068;28;19920;-60
2021/11/30 03:02:26;;;;;;;;;;;5.50;99.90;;;;;;5009666;28;19918;-62
2021/11/30 03:04:54;;;;;;;;;;;5.50;99.90;;;;;;5010555;28;20016;-61
2021/11/30 03:07:21;;;;;;;;;;;5.50;99.90;;;;;;5019555;28;19928;-62
2021/11/30 03:09:46;;;;;;;;;;;5.50;99.90;;;;;;5010158;28;19944;-60
2021/11/30 03:12:12;;;;;;;;;;;5.60;99.90;;;;;;5024921;28;19917;-61
2021/11/30 03:14:38;;;;;;;;;;;5.60;99.90;;;;;;5009079;28;19913;-60
2021/11/30 03:17:04;;;;;;;;;;;5.60;99.90;;;;;;5009084;28;19913;-62
2021/11/30 03:19:30;;;;;;;;;;;5.60;99.90;;;;;;5007780;28;20461;-60
2021/11/30 03:21:56;;;;;;;;;;;5.70;99.90;;;;;;5012555;28;19960;-60
2021/11/30 03:24:22;;;;;;;;;;;5.70;99.90;;;;;;5010927;28;19992;-60
2021/11/30 03:26:47;;;;;;;;;;;5.70;99.90;;;;;;5010583;28;19909;-61
2021/11/30 03:29:13;;;;;;;;;;;5.80;99.90;;;;;;5009804;28;19920;-61
2021/11/30 03:34:05;;;;;;;;;;;5.90;99.90;;;;;;5009761;28;19972;-60
2021/11/30 03:36:32;;;;;;;;;;;5.90;99.90;;;;;;5009461;28;19964;-60
2021/11/30 03:38:59;;;;;;;;;;;6.00;99.90;;;;;;5022133;28;19949;-60
2021/11/30 03:41:24;;;;;;;;;;;6.00;99.90;;;;;;5008897;28;19913;-61
2021/11/30 03:43:50;;;;;;;;;;;6.10;99.90;;;;;;5011736;28;20332;-59
2021/11/30 03:46:17;;;;;;;;;;;6.20;99.90;;;;;;5016005;28;19910;-60
2021/11/30 03:48:42;;;;;;;;;;;6.20;99.90;;;;;;5007885;28;20351;-61
2021/11/30 03:51:08;;;;;;;;;;;6.30;99.90;;;;;;5008063;28;19952;-61
2021/11/30 03:53:33;;;;;;;;;;;6.40;99.90;;;;;;5008155;28;20424;-60
2021/11/30 03:55:59;;;;;;;;;;;6.40;99.90;;;;;;5007075;28;19963;-60
2021/11/30 03:58:24;;;;;;;;;;;6.50;99.90;;;;;;5027408;28;19948;-60
2021/11/30 04:00:50;;;;;;;;;;;6.60;99.90;;;;;;5015844;28;20384;-59
2021/11/30 04:03:15;;;;;;;;;;;6.60;99.90;;;;;;5019932;28;19976;-61
2021/11/30 04:05:40;;;;;;;;;;;6.80;99.90;;;;;;5017902;28;19913;-59
2021/11/30 04:08:06;;;;;;;;;;;7.00;99.90;;;;;;5008813;28;19917;-59
2021/11/30 04:10:32;;;;;;;;;;;7.20;99.90;;;;;;5008692;28;19920;-62
2021/11/30 04:12:57;;;;;;;;;;;7.50;99.90;;;;;;5008885;28;19917;-59
2021/11/30 04:15:23;;;;;;;;;;;7.50;99.90;;;;;;5014227;28;20270;-60
2021/11/30 04:17:48;;;;;;;;;;;7.60;99.90;;;;;;5009510;28;19941;-59
2021/11/30 04:20:14;;;;;;;;;;;7.60;99.90;;;;;;5008949;28;20560;-62
2021/11/30 04:22:41;;;;;;;;;;;7.60;99.90;;;;;;5008887;28;19921;-60
2021/11/30 04:25:07;;;;;;;;;;;7.70;99.90;;;;;;5008542;28;19920;-60
2021/11/30 04:27:33;;;;;;;;;;;7.80;99.90;;;;;;5009247;28;20401;-60
2021/11/30 04:29:59;;;;;;;;;;;7.70;99.90;;;;;;5008315;28;19921;-60
2021/11/30 04:32:25;;;;;;;;;;;7.80;99.90;;;;;;5015464;28;20181;-61
2021/11/30 04:34:50;;;;;;;;;;;7.80;99.90;;;;;;5008090;28;19976;-60
2021/11/30 04:37:16;;;;;;;;;;;7.90;99.90;;;;;;5008928;28;20444;-61
2021/11/30 04:39:41;;;;;;;;;;;7.90;99.90;;;;;;5008293;28;19945;-61
2021/11/30 04:42:07;;;;;;;;;;;7.90;99.90;;;;;;5008325;28;19917;-60
2021/11/30 04:44:35;;;;;;;;;;;7.90;99.90;;;;;;5025278;28;19918;-60
2021/11/30 04:47:05;;;;;;;;;;;7.90;99.90;;;;;;5010228;28;19956;-61
2021/11/30 04:49:41;;;;;;;;;;;7.90;99.90;;;;;;5013523;28;19913;-60
2021/11/30 04:52:08;;;;;;;;;;;8.00;99.90;;;;;;5011104;28;20006;-59
2021/11/30 04:54:34;;;;;;;;;;;8.00;99.90;;;;;;5008513;28;19921;-60
2021/11/30 04:56:59;;;;;;;;;;;8.00;99.90;;;;;;5023736;28;19918;-59
2021/11/30 04:59:25;;;;;;;;;;;8.00;99.90;;;;;;5008135;28;19996;-61
2021/11/30 05:01:50;;;;;;;;;;;8.00;99.90;;;;;;5008787;28;20415;-61
2021/11/30 05:04:16;;;;;;;;;;;8.00;99.90;;;;;;5010371;28;20055;-60
2021/11/30 05:06:43;;;;;;;;;;;8.10;99.90;;;;;;5020128;28;20603;-62
2021/11/30 05:09:09;;;;;;;;;;;8.10;99.90;;;;;;5001488;28;20007;-61
2021/11/30 05:11:36;;;;;;;;;;;8.10;99.90;;;;;;5007983;28;20552;-61
2021/11/30 05:14:02;;;;;;;;;;;8.10;99.90;;;;;;5007727;28;20382;-60
2021/11/30 05:16:27;;;;;;;;;;;8.10;99.90;;;;;;5008461;28;19924;-59
2021/11/30 05:18:53;;;;;;;;;;;8.10;99.90;;;;;;5007757;28;19913;-61
2021/11/30 05:21:19;;;;;;;;;;;8.20;99.90;;;;;;5011985;28;19925;-60
2021/11/30 05:23:44;;;;;;;;;;;8.20;99.90;;;;;;5023463;28;19999;-60
2021/11/30 05:26:10;;;;;;;;;;;8.20;99.90;;;;;;5006919;28;20071;-61
2021/11/30 05:28:37;;;;;;;;;;;8.20;99.90;;;;;;5006873;28;20397;-61
2021/11/30 05:31:03;;;;;;;;;;;8.20;99.90;;;;;;5007549;28;19913;-61
2021/11/30 05:33:29;;;;;;;;;;;8.20;99.90;;;;;;5007705;28;19988;-60
2021/11/30 05:35:55;;;;;;;;;;;8.20;99.90;;;;;;5007586;28;19913;-60
2021/11/30 05:38:20;;;;;;;;;;;8.20;99.90;;;;;;5007380;28;19969;-61
2021/11/30 05:40:47;;;;;;;;;;;8.30;99.90;;;;;;5007204;28;20310;-60
2021/11/30 05:43:12;;;;;;;;;;;8.30;99.90;;;;;;5018408;28;19952;-64
2021/11/30 05:45:38;;;;;;;;;;;8.30;99.90;;;;;;5012088;28;19932;-60
2021/11/30 05:48:03;;;;;;;;;;;8.30;99.90;;;;;;5011998;28;19920;-62
2021/11/30 05:50:29;;;;;;;;;;;8.40;99.90;;;;;;5007162;28;19976;-61
2021/11/30 05:52:54;;;;;;;;;;;8.30;99.90;;;;;;5017452;28;19909;-61
2021/11/30 05:55:20;;;;;;;;;;;8.40;99.90;;;;;;5012969;28;20656;-59
2021/11/30 05:57:45;;;;;;;;;;;8.40;99.90;;;;;;5011588;28;20413;-61
2021/11/30 06:00:13;;;;;;;;;;;8.40;99.90;;;;;;5009380;28;19914;-61
2021/11/30 06:02:56;;;;;;;;;;;8.40;99.90;;;;;;5008006;28;19948;-62
2021/11/30 06:05:22;;;;;;;;;;;8.50;99.90;;;;;;5026285;28;19922;-61
2021/11/30 06:07:48;;;;;;;;;;;8.50;99.90;;;;;;5010691;28;19914;-62
2021/11/30 06:10:13;;;;;;;;;;;8.50;99.90;;;;;;5009900;28;19967;-61
2021/11/30 06:12:39;;;;;;;;;;;8.50;99.90;;;;;;5010475;28;19925;-61
2021/11/30 06:15:05;;;;;;;;;;;8.50;99.90;;;;;;5009801;28;19913;-61
2021/11/30 06:17:30;;;;;;;;;;;8.50;99.90;;;;;;5010666;28;19914;-59
2021/11/30 06:19:56;;;;;;;;;;;8.60;99.90;;;;;;5026158;28;20277;-61
2021/11/30 06:22:21;;;;;;;;;;;8.60;99.90;;;;;;5004397;28;20428;-59
2021/11/30 06:24:46;;;;;;;;;;;8.60;99.90;;;;;;5004176;28;19914;-61
2021/11/30 06:27:12;;;;;;;;;;;8.60;99.90;;;;;;5002778;28;19921;-63
2021/11/30 06:29:37;;;;;;;;;;;8.70;99.90;;;;;;5004507;28;19921;-63
2021/11/30 06:32:03;;;;;;;;;;;8.70;99.90;;;;;;5010975;28;19913;-61
2021/11/30 06:34:29;;;;;;;;;;;8.60;99.90;;;;;;5011886;28;19981;-62
2021/11/30 06:36:54;;;;;;;;;;;8.70;99.90;;;;;;5015388;28;19909;-62
2021/11/30 06:39:20;;;;;;;;;;;8.70;99.90;;;;;;5011301;28;19914;-62
2021/11/30 06:41:45;;;;;;;;;;;8.70;99.90;;;;;;5011927;28;20019;-60
2021/11/30 06:44:11;;;;;;;;;;;8.70;99.90;;;;;;5011913;28;19914;-60
2021/11/30 06:46:36;;;;;;;;;;;8.70;99.90;;;;;;5010415;28;19914;-60
2021/11/30 06:49:02;;;;;;;;;;;8.80;99.90;;;;;;5009706;28;20313;-61
2021/11/30 06:51:28;;;;;;;;;;;8.80;99.90;;;;;;5008896;28;19913;-61
2021/11/30 06:53:53;;;;;;;;;;;8.80;99.90;;;;;;5008559;28;19910;-61
2021/11/30 06:56:18;;;;;;;;;;;8.80;99.90;;;;;;5009480;28;19917;-61
2021/11/30 06:58:44;;;;;;;;;;;8.80;99.90;;;;;;5013044;28;19909;-62
2021/11/30 07:01:11;;;;;;;;;;;8.90;99.90;;;;;;5008892;28;20190;-61
2021/11/30 07:03:38;;;;;;;;;;;8.90;99.90;;;;;;5008877;28;19940;-61
2021/11/30 07:14:03;;;;;;;;;;;8.90;99.90;;;;;;5011822;28;19932;-62
2021/11/30 07:16:28;;;;;;;;;;;9.00;99.90;;;;;;5010111;28;20404;-59
2021/11/30 07:18:54;;;;;;;;;;;9.00;99.90;;;;;;5010077;28;19944;-62
2021/11/30 07:21:19;;;;;;;;;;;9.00;99.90;;;;;;5010716;28;19913;-61
2021/11/30 07:23:45;;;;;;;;;;;9.10;99.90;;;;;;5010752;28;19976;-61
2021/11/30 07:26:10;;;;;;;;;;;9.10;99.90;;;;;;5010611;28;19939;-60
2021/11/30 07:28:36;;;;;;;;;;;9.10;99.90;;;;;;5010005;28;20397;-63
2021/11/30 07:31:05;;;;;;;;;;;9.10;99.90;;;;;;5005684;28;19918;-61
2021/11/30 07:33:32;;;;;;;;;;;9.10;99.90;;;;;;5009868;28;19909;-60
2021/11/30 07:35:59;;;;;;;;;;;9.10;99.90;;;;;;5009702;28;19909;-61
2021/11/30 07:38:24;;;;;;;;;;;9.10;99.90;;;;;;5009214;28;19910;-61
2021/11/30 07:40:50;;;;;;;;;;;9.10;99.90;;;;;;5022250;28;19914;-62
2021/11/30 07:43:15;;;;;;;;;;;9.10;99.90;;;;;;5007268;28;19956;-62
2021/11/30 07:45:43;;;;;;;;;;;9.10;99.90;;;;;;5007946;28;19925;-62
2021/11/30 07:48:09;;;;;;;;;;;9.20;99.90;;;;;;5008598;28;19914;-59
2021/11/30 07:50:34;;;;;;;;;;;9.10;99.90;;;;;;5018145;28;19913;-62
2021/11/30 07:52:59;;;;;;;;;;;9.20;99.90;;;;;;5009648;28;19920;-61
2021/11/30 07:55:25;;;;;;;;;;;9.10;99.90;;;;;;5007556;28;19914;-60
2021/11/30 07:57:51;;;;;;;;;;;9.20;99.90;;;;;;5009825;28;20323;-61
2021/11/30 08:00:17;;;;;;;;;;;9.20;99.90;;;;;;5024299;28;20338;-61
2021/11/30 08:02:44;;;;;;;;;;;9.20;99.90;;;;;;5009493;28;19914;-61
2021/11/30 08:05:10;;;;;;;;;;;9.20;99.90;;;;;;5015006;28;19921;-62
2021/11/30 08:07:36;;;;;;;;;;;9.20;99.90;;;;;;5012952;28;20012;-61
2021/11/30 08:10:04;;;;;;;;;;;9.20;99.90;;;;;;5008968;28;20044;-59
2021/11/30 08:12:29;;;;;;;;;;;9.20;99.90;;;;;;5008330;28;19920;-61
2021/11/30 08:14:55;;;;;;;;;;;9.30;99.90;;;;;;5009582;28;19992;-61
2021/11/30 08:17:20;;;;;;;;;;;9.30;99.90;;;;;;5009061;28;19910;-60
2021/11/30 08:19:47;;;;;;;;;;;9.30;99.90;;;;;;5008632;28;19909;-61
2021/11/30 08:22:13;;;;;;;;;;;9.30;99.90;;;;;;5008792;28;19917;-61
2021/11/30 08:24:39;;;;;;;;;;;9.30;99.90;;;;;;5008094;28;20114;-59
2021/11/30 08:27:05;;;;;;;;;;;9.30;99.90;;;;;;5007737;28;19916;-59
2021/11/30 08:29:31;;;;;;;;;;;9.30;99.90;;;;;;5007699;28;20296;-61
2021/11/30 08:31:59;;;;;;;;;;;9.30;99.90;;;;;;5008064;28;19909;-60
2021/11/30 08:34:25;;;;;;;;;;;9.40;99.90;;;;;;5017002;28;20095;-62
2021/11/30 08:36:51;;;;;;;;;;;9.40;99.90;;;;;;5028079;28;19913;-61
2021/11/30 08:39:16;;;;;;;;;;;9.40;99.90;;;;;;5028126;28;19910;-59
2021/11/30 08:41:42;;;;;;;;;;;9.40;99.90;;;;;;5043830;28;19921;-61
2021/11/30 08:44:07;;;;;;;;;;;9.40;99.90;;;;;;5028123;28;20309;-60
2021/11/30 08:46:33;;;;;;;;;;;9.40;99.90;;;;;;5027948;28;20252;-60
2021/11/30 08:48:58;;;;;;;;;;;9.40;99.90;;;;;;5027356;28;20280;-60
2021/11/30 08:51:24;;;;;;;;;;;9.40;99.90;;;;;;5042960;28;20428;-61
2021/11/30 08:53:49;;;;;;;;;;;9.40;99.90;;;;;;5028062;28;19909;-60
2021/11/30 08:56:15;;;;;;;;;;;9.40;99.90;;;;;;5027890;28;19910;-61
2021/11/30 08:58:41;;;;;;;;;;;9.50;99.90;;;;;;5042984;28;19971;-62
2021/11/30 09:01:06;;;;;;;;;;;9.40;99.90;;;;;;5042459;28;19909;-60
2021/11/30 09:03:32;;;;;;;;;;;9.40;99.90;;;;;;5026549;28;19972;-62
2021/11/30 09:05:58;;;;;;;;;;;9.40;99.90;;;;;;5024168;28;19913;-61
2021/11/30 09:08:24;;;;;;;;;;;9.50;99.90;;;;;;5006545;28;20165;-60
2021/11/30 09:10:50;;;;;;;;;;;9.50;99.90;;;;;;5008012;28;19913;-61
2021/11/30 09:13:16;;;;;;;;;;;9.50;99.90;;;;;;5007595;28;19959;-62
2021/11/30 09:15:41;;;;;;;;;;;9.50;99.90;;;;;;5007800;28;19913;-62
2021/11/30 09:18:07;;;;;;;;;;;9.50;99.90;;;;;;5007988;28;19993;-63
2021/11/30 09:20:32;;;;;;;;;;;9.50;99.90;;;;;;5007744;28;20149;-60
2021/11/30 09:22:59;;;;;;;;;;;9.50;99.90;;;;;;5008592;28;20020;-60
2021/11/30 09:25:25;;;;;;;;;;;9.50;99.90;;;;;;5008142;28;19910;-65
2021/11/30 09:27:50;;;;;;;;;;;9.60;99.90;;;;;;5010169;28;19940;-61
2021/11/30 09:30:17;;;;;;;;;;;9.50;99.90;;;;;;5008679;28;20377;-61
2021/11/30 09:32:43;;;;;;;;;;;9.60;99.90;;;;;;5008492;28;20283;-62
2021/11/30 09:35:11;;;;;;;;;;;9.60;99.90;;;;;;5007832;28;19972;-61
2021/11/30 09:37:40;;;;;;;;;;;9.60;99.90;;;;;;5007905;28;19910;-61
2021/11/30 09:40:09;;;;;;;;;;;9.60;99.90;;;;;;5007330;28;19933;-62
2021/11/30 09:42:35;;;;;;;;;;;9.70;99.90;;;;;;5007118;28;19963;-62
2021/11/30 09:45:03;;;;;;;;;;;9.70;99.90;;;;;;5007516;28;19913;-60
2021/11/30 09:47:29;;;;;;;;;;;9.70;99.90;;;;;;5007702;28;19909;-60
2021/11/30 09:49:54;;;;;;;;;;;9.70;99.90;;;;;;5008007;28;19955;-62
2021/11/30 09:52:20;;;;;;;;;;;9.70;99.90;;;;;;5007729;28;19917;-62
2021/11/30 09:54:45;;;;;;;;;;;9.80;99.90;;;;;;5008159;28;19910;-61
2021/11/30 09:57:11;;;;;;;;;;;9.80;99.90;;;;;;5006847;28;20234;-61
2021/11/30 09:59:36;;;;;;;;;;;9.80;99.90;;;;;;5006160;28;19910;-63
2021/11/30 10:02:03;;;;;;;;;;;9.80;99.90;;;;;;5005688;28;19914;-60
2021/11/30 10:04:28;;;;;;;;;;;9.80;99.90;;;;;;5008070;28;20039;-63
2021/11/30 10:06:54;;;;;;;;;;;9.80;99.90;;;;;;5017225;28;20012;-61
2021/11/30 10:09:23;;;;;;;;;;;9.80;99.90;;;;;;5001451;28;19944;-62
2021/11/30 10:12:00;;;;;;;;;;;9.70;99.90;;;;;;5002055;28;19967;-62
2021/11/30 10:14:33;;;;;;;;;;;9.80;99.90;;;;;;5006349;28;20195;-63
2021/11/30 10:17:13;;;;;;;;;;;9.80;99.90;;;;;;5008367;28;20122;-62
2021/11/30 10:19:39;;;;;;;;;;;9.80;99.90;;;;;;5008988;28;19960;-62
2021/11/30 10:22:05;;;;;;;;;;;9.80;99.90;;;;;;5009218;28;19924;-63
2021/11/30 10:24:30;;;;;;;;;;;9.80;99.90;;;;;;5009530;28;20102;-63
2021/11/30 10:26:56;;;;;;;;;;;9.80;99.90;;;;;;5009826;28;20118;-62
2021/11/30 10:29:22;;;;;;;;;;;9.80;99.90;;;;;;5026609;28;20008;-63
2021/11/30 10:31:50;;;;;;;;;;;9.80;99.90;;;;;;5012684;28;19916;-62
2021/11/30 10:34:28;;;;;;;;;;;9.80;99.90;;;;;;5012666;28;20004;-63
2021/11/30 10:36:56;;;;;;;;;;;9.80;99.90;;;;;;5010397;28;19916;-62
2021/11/30 10:39:26;;;;;;;;;;;9.80;99.90;;;;;;5000119;28;20153;-62
2021/11/30 10:41:53;;;;;;;;;;;9.80;99.90;;;;;;5012738;28;19968;-62
2021/11/30 10:44:29;;;;;;;;;;;9.80;99.90;;;;;;5009876;28;19928;-60
2021/11/30 10:47:06;;;;;;;;;;;9.80;99.90;;;;;;5007513;28;19909;-60
2021/11/30 10:49:31;;;;;;;;;;;9.90;99.90;;;;;;5014274;28;19936;-64
2021/11/30 10:52:00;;;;;;;;;;;9.90;99.90;;;;;;5010098;28;19913;-60
2021/11/30 10:54:34;;;;;;;;;;;9.90;99.90;;;;;;5009478;28;20241;-63
2021/11/30 10:57:00;;;;;;;;;;;9.90;99.90;;;;;;5008047;28;20960;-64
2021/11/30 10:59:29;;;;;;;;;;;9.90;99.90;;;;;;5009155;28;19990;-64
2021/11/30 11:01:54;;;;;;;;;;;9.80;99.90;;;;;;5010442;28;19917;-63
2021/11/30 11:04:27;;;;;;;;;;;9.80;99.90;;;;;;5010108;28;20016;-61
2021/11/30 11:07:06;;;;;;;;;;;9.90;99.90;;;;;;5020867;28;20349;-61
2021/11/30 11:09:39;;;;;;;;;;;9.90;99.90;;;;;;5028854;28;19909;-63
2021/11/30 11:12:05;;;;;;;;;;;9.90;99.90;;;;;;5005455;28;19913;-63
2021/11/30 11:14:42;;;;;;;;;;;9.90;99.90;;;;;;5027884;28;19909;-63
2021/11/30 11:17:07;;;;;;;;;;;9.90;99.90;;;;;;5046114;28;19921;-61
2021/11/30 11:19:40;;;;;;;;;;;9.90;99.90;;;;;;5030288;28;19909;-63
2021/11/30 11:22:12;;;;;;;;;;;9.90;99.90;;;;;;5030278;28;19968;-64
2021/11/30 11:24:41;;;;;;;;;;;9.90;99.90;;;;;;5025271;28;19910;-61
2021/11/30 11:27:06;;;;;;;;;;;9.90;99.90;;;;;;5010014;28;20322;-63
2021/11/30 11:29:32;;;;;;;;;;;9.90;99.90;;;;;;5010172;28;19917;-63
2021/11/30 11:31:59;;;;;;;;;;;9.90;99.90;;;;;;5009984;28;19932;-61
2021/11/30 11:34:29;;;;;;;;;;;9.90;99.90;;;;;;5020219;28;20016;-61
2021/11/30 11:36:55;;;;;;;;;;;9.90;99.90;;;;;;5009590;28;19910;-62
2021/11/30 11:39:21;;;;;;;;;;;9.90;99.90;;;;;;5009352;28;19933;-61
2021/11/30 11:41:57;;;;;;;;;;;9.90;99.90;;;;;;5005175;28;20004;-62
2021/11/30 11:44:23;;;;;;;;;;;9.90;99.90;;;;;;5003699;28;19914;-61
2021/11/30 11:46:49;;;;;;;;;;;9.90;99.90;;;;;;5005028;28;19972;-62
2021/11/30 11:49:18;;;;;;;;;;;9.90;99.90;;;;;;5012144;28;19913;-62
2021/11/30 11:51:45;;;;;;;;;;;10.00;99.90;;;;;;5014926;28;19996;-60
2021/11/30 11:54:28;;;;;;;;;;;10.00;99.90;;;;;;5005563;28;19910;-62
2021/11/30 11:57:13;;;;;;;;;;;9.90;99.90;;;;;;5005973;28;19913;-61
2021/11/30 11:59:43;;;;;;;;;;;10.00;99.90;;;;;;5006002;28;20475;-61
2021/11/30 12:02:25;;;;;;;;;;;9.90;99.90;;;;;;5004573;28;19940;-60
2021/11/30 12:04:53;;;;;;;;;;;10.00;99.90;;;;;;5008588;28;20167;-62
2021/11/30 12:07:19;;;;;;;;;;;10.00;99.90;;;;;;5011078;28;19968;-61
2021/11/30 12:09:44;;;;;;;;;;;10.00;99.90;;;;;;5005249;28;20255;-61
2021/11/30 12:12:10;;;;;;;;;;;10.00;99.90;;;;;;5005264;28;20137;-61
2021/11/30 12:14:37;;;;;;;;;;;10.00;99.90;;;;;;5006911;28;19968;-62
2021/11/30 12:17:10;;;;;;;;;;;10.00;99.90;;;;;;5017313;28;19928;-61
2021/11/30 12:19:44;;;;;;;;;;;10.00;99.90;;;;;;5025637;28;20374;-63
2021/11/30 12:22:10;;;;;;;;;;;10.00;99.90;;;;;;5025418;28;19914;-62
2021/11/30 12:24:37;;;;;;;;;;;10.00;99.90;;;;;;5021088;28;19910;-62
2021/11/30 12:27:21;;;;;;;;;;;10.00;99.90;;;;;;5005252;28;19952;-61
2021/11/30 12:29:47;;;;;;;;;;;10.00;99.90;;;;;;5005611;28;19991;-60
2021/11/30 12:32:20;;;;;;;;;;;9.90;99.90;;;;;;5004359;28;20223;-62
2021/11/30 12:34:49;;;;;;;;;;;10.00;99.90;;;;;;5005977;28;19909;-59
2021/11/30 12:37:17;;;;;;;;;;;10.00;99.90;;;;;;5004460;28;19973;-61
2021/11/30 12:39:57;;;;;;;;;;;10.00;99.90;;;;;;5005429;28;19964;-61
2021/11/30 12:42:23;;;;;;;;;;;10.00;99.90;;;;;;5004143;28;20149;-59
2021/11/30 12:44:49;;;;;;;;;;;10.00;99.90;;;;;;5005218;28;19913;-61
2021/11/30 12:47:33;;;;;;;;;;;10.00;99.90;;;;;;5004468;28;19919;-61
2021/11/30 12:49:58;;;;;;;;;;;9.90;99.90;;;;;;4999141;28;20585;-60
2021/11/30 12:52:43;;;;;;;;;;;10.00;99.90;;;;;;5012708;28;19924;-61
2021/11/30 12:55:11;;;;;;;;;;;9.90;99.90;;;;;;5004606;28;19914;-61
2021/11/30 12:57:38;;;;;;;;;;;9.90;99.90;;;;;;5005739;28;19984;-60
2021/11/30 13:00:22;;;;;;;;;;;10.00;99.90;;;;;;5007464;28;19917;-61
2021/11/30 13:02:48;;;;;;;;;;;10.00;99.90;;;;;;5015463;28;19964;-61
2021/11/30 13:05:15;;;;;;;;;;;9.90;99.90;;;;;;5013610;28;19925;-61
2021/11/30 13:07:46;;;;;;;;;;;10.00;99.90;;;;;;5009785;28;19940;-59
2021/11/30 13:10:25;;;;;;;;;;;10.00;99.90;;;;;;5005165;28;20406;-61
2021/11/30 13:12:51;;;;;;;;;;;9.90;99.90;;;;;;5007780;28;19918;-60
2021/11/30 13:15:18;;;;;;;;;;;9.90;99.90;;;;;;5007011;28;19913;-60
2021/11/30 13:17:44;;;;;;;;;;;10.00;99.90;;;;;;5006681;28;19910;-59
2021/11/30 13:20:11;;;;;;;;;;;10.00;99.90;;;;;;5005412;28;20397;-60
2021/11/30 13:22:38;;;;;;;;;;;10.00;99.90;;;;;;5009094;28;19913;-60
2021/11/30 13:25:07;;;;;;;;;;;10.00;99.90;;;;;;5018130;28;19936;-60
2021/11/30 13:27:36;;;;;;;;;;;10.00;99.90;;;;;;5012553;28;19910;-60
2021/11/30 13:30:12;;;;;;;;;;;10.00;99.90;;;;;;5003693;28;19914;-60
2021/11/30 13:32:39;;;;;;;;;;;10.00;99.90;;;;;;5019976;28;20337;-60
2021/11/30 13:35:15;;;;;;;;;;;10.00;99.90;;;;;;5007855;28;19932;-59
2021/11/30 13:37:53;;;;;;;;;;;10.00;99.90;;;;;;5008123;28;19913;-60
2021/11/30 13:40:32;;;;;;;;;;;10.00;99.90;;;;;;5008648;28;19917;-62
2021/11/30 13:43:01;;;;;;;;;;;10.00;99.90;;;;;;4989390;28;20366;-61
2021/11/30 13:45:27;;;;;;;;;;;10.00;99.90;;;;;;4989062;28;19921;-61
2021/11/30 13:47:53;;;;;;;;;;;10.00;99.90;;;;;;4989057;28;19910;-60
2021/11/30 13:50:21;;;;;;;;;;;10.00;99.90;;;;;;4988274;28;19914;-61
2021/11/30 13:52:46;;;;;;;;;;;10.00;99.90;;;;;;4988239;28;19980;-61
2021/11/30 13:55:13;;;;;;;;;;;10.00;99.90;;;;;;4987692;28;19957;-60
2021/11/30 13:57:38;;;;;;;;;;;10.00;99.90;;;;;;5003074;28;19967;-61
2021/11/30 14:00:12;;;;;;;;;;;10.00;99.90;;;;;;5014650;28;19913;-59
2021/11/30 14:02:39;;;;;;;;;;;10.10;99.90;;;;;;5008822;28;20488;-58
2021/11/30 14:05:06;;;;;;;;;;;10.10;99.90;;;;;;5033052;28;19917;-59
2021/11/30 14:07:33;;;;;;;;;;;10.00;99.90;;;;;;5018716;28;20012;-60
2021/11/30 14:10:00;;;;;;;;;;;10.10;99.90;;;;;;5015266;28;20243;-61
2021/11/30 14:12:26;;;;;;;;;;;10.00;99.90;;;;;;5013386;28;19910;-65
2021/11/30 14:14:53;;;;;;;;;;;10.10;99.90;;;;;;5013632;28;20349;-60
2021/11/30 14:17:27;;;;;;;;;;;10.10;99.90;;;;;;5026807;28;19913;-63
2021/11/30 14:19:52;;;;;;;;;;;10.10;99.90;;;;;;5011228;28;19956;-62
2021/11/30 14:22:19;;;;;;;;;;;10.10;99.90;;;;;;5011208;28;19949;-60
2021/11/30 14:24:53;;;;;;;;;;;10.10;99.90;;;;;;5013311;28;19910;-61
2021/11/30 14:27:19;;;;;;;;;;;10.10;99.90;;;;;;5014408;28;19968;-60
2021/11/30 14:29:47;;;;;;;;;;;10.10;99.90;;;;;;5013490;28;19916;-61
2021/11/30 14:32:16;;;;;;;;;;;10.10;99.90;;;;;;5012721;28;19910;-60
2021/11/30 14:34:42;;;;;;;;;;;10.10;99.90;;;;;;5013287;28;20028;-62
2021/11/30 14:37:23;;;;;;;;;;;10.10;99.90;;;;;;5013271;28;19940;-63
2021/11/30 14:39:50;;;;;;;;;;;10.10;99.90;;;;;;5012635;28;19910;-60
2021/11/30 14:42:29;;;;;;;;;;;10.10;99.90;;;;;;5007802;28;20417;-61
2021/11/30 14:45:15;;;;;;;;;;;10.10;99.90;;;;;;5014240;28;19932;-61